sensor_id;sensor_type;location;lat;lon;timestamp;pressure;altitude;pressure_sealevel;temperature
67822;BMP180;54434;50.096;20.082;2022-09-11T00:00:37;98421.20;;;13.20
67822;BMP180;54434;50.096;20.082;2022-09-11T00:03:31;98418.60;;;13.20
67822;BMP180;54434;50.096;20.082;2022-09-11T00:06:12;98415.60;;;13.20
67822;BMP180;54434;50.096;20.082;2022-09-11T00:09:06;98414.20;;;13.20
67822;BMP180;54434;50.096;20.082;2022-09-11T00:11:44;98413.60;;;13.20
67822;BMP180;54434;50.096;20.082;2022-09-11T00:14:20;98417.00;;;13.20
67822;BMP180;54434;50.096;20.082;2022-09-11T00:16:56;98413.00;;;13.20
67822;BMP180;54434;50.096;20.082;2022-09-11T00:19:31;98414.40;;;13.20
67822;BMP180;54434;50.096;20.082;2022-09-11T00:22:10;98411.60;;;13.12
67822;BMP180;54434;50.096;20.082;2022-09-11T00:24:46;98415.60;;;13.10
67822;BMP180;54434;50.096;20.082;2022-09-11T00:27:22;98415.60;;;13.20
67822;BMP180;54434;50.096;20.082;2022-09-11T00:29:58;98413.80;;;13.20
67822;BMP180;54434;50.096;20.082;2022-09-11T00:32:35;98414.00;;;13.20
67822;BMP180;54434;50.096;20.082;2022-09-11T00:35:12;98414.60;;;13.20
67822;BMP180;54434;50.096;20.082;2022-09-11T00:37:48;98417.40;;;13.20
67822;BMP180;54434;50.096;20.082;2022-09-11T00:40:25;98414.00;;;13.20
67822;BMP180;54434;50.096;20.082;2022-09-11T00:43:01;98411.00;;;13.20
67822;BMP180;54434;50.096;20.082;2022-09-11T00:45:38;98413.60;;;13.26
67822;BMP180;54434;50.096;20.082;2022-09-11T00:48:18;98407.00;;;13.30
67822;BMP180;54434;50.096;20.082;2022-09-11T00:50:57;98407.80;;;13.30
67822;BMP180;54434;50.096;20.082;2022-09-11T00:53:36;98411.60;;;13.30
67822;BMP180;54434;50.096;20.082;2022-09-11T00:56:13;98413.00;;;13.30
67822;BMP180;54434;50.096;20.082;2022-09-11T00:58:53;98413.60;;;13.30
67822;BMP180;54434;50.096;20.082;2022-09-11T01:01:30;98412.20;;;13.38
67822;BMP180;54434;50.096;20.082;2022-09-11T01:04:09;98414.80;;;13.40
67822;BMP180;54434;50.096;20.082;2022-09-11T01:06:45;98413.80;;;13.40
67822;BMP180;54434;50.096;20.082;2022-09-11T01:09:22;98408.00;;;13.40
67822;BMP180;54434;50.096;20.082;2022-09-11T01:12:11;98406.00;;;13.40
67822;BMP180;54434;50.096;20.082;2022-09-11T01:15:01;98404.00;;;13.40
67822;BMP180;54434;50.096;20.082;2022-09-11T01:17:49;98401.20;;;13.40
67822;BMP180;54434;50.096;20.082;2022-09-11T01:20:47;98400.80;;;13.40
67822;BMP180;54434;50.096;20.082;2022-09-11T01:27:19;98402.60;;;13.40
67822;BMP180;54434;50.096;20.082;2022-09-11T01:30:03;98402.00;;;13.40
67822;BMP180;54434;50.096;20.082;2022-09-11T01:33:11;98406.40;;;13.40
67822;BMP180;54434;50.096;20.082;2022-09-11T01:36:01;98403.40;;;13.40
67822;BMP180;54434;50.096;20.082;2022-09-11T01:38:45;98397.40;;;13.40
67822;BMP180;54434;50.096;20.082;2022-09-11T01:41:28;98393.00;;;13.40
67822;BMP180;54434;50.096;20.082;2022-09-11T01:44:09;98400.60;;;13.50
67822;BMP180;54434;50.096;20.082;2022-09-11T01:46:51;98390.60;;;13.50
67822;BMP180;54434;50.096;20.082;2022-09-11T01:49:34;98392.60;;;13.50
67822;BMP180;54434;50.096;20.082;2022-09-11T01:52:20;98391.00;;;13.50
67822;BMP180;54434;50.096;20.082;2022-09-11T01:55:02;98389.40;;;13.50
67822;BMP180;54434;50.096;20.082;2022-09-11T01:57:47;98388.60;;;13.50
67822;BMP180;54434;50.096;20.082;2022-09-11T02:00:25;98388.20;;;13.50
67822;BMP180;54434;50.096;20.082;2022-09-11T02:03:09;98388.80;;;13.50
67822;BMP180;54434;50.096;20.082;2022-09-11T02:05:54;98385.40;;;13.56
67822;BMP180;54434;50.096;20.082;2022-09-11T02:08:42;98386.40;;;13.60
67822;BMP180;54434;50.096;20.082;2022-09-11T02:11:19;98383.60;;;13.58
67822;BMP180;54434;50.096;20.082;2022-09-11T02:14:05;98387.60;;;13.56
67822;BMP180;54434;50.096;20.082;2022-09-11T02:16:51;98380.00;;;13.60
67822;BMP180;54434;50.096;20.082;2022-09-11T02:19:31;98377.80;;;13.58
67822;BMP180;54434;50.096;20.082;2022-09-11T02:22:08;98372.00;;;13.58
67822;BMP180;54434;50.096;20.082;2022-09-11T02:24:44;98369.60;;;13.56
67822;BMP180;54434;50.096;20.082;2022-09-11T02:27:26;98369.60;;;13.50
67822;BMP180;54434;50.096;20.082;2022-09-11T02:30:07;98367.80;;;13.50
67822;BMP180;54434;50.096;20.082;2022-09-11T02:32:45;98365.40;;;13.42
67822;BMP180;54434;50.096;20.082;2022-09-11T02:35:27;98364.20;;;13.40
67822;BMP180;54434;50.096;20.082;2022-09-11T02:38:17;98361.60;;;13.40
67822;BMP180;54434;50.096;20.082;2022-09-11T02:41:07;98362.20;;;13.30
67822;BMP180;54434;50.096;20.082;2022-09-11T02:44:05;98359.20;;;13.32
67822;BMP180;54434;50.096;20.082;2022-09-11T02:47:13;98358.80;;;13.30
67822;BMP180;54434;50.096;20.082;2022-09-11T02:50:06;98358.40;;;13.34
67822;BMP180;54434;50.096;20.082;2022-09-11T02:52:59;98356.00;;;13.32
67822;BMP180;54434;50.096;20.082;2022-09-11T02:55:57;98351.80;;;13.30
67822;BMP180;54434;50.096;20.082;2022-09-11T02:58:44;98349.00;;;13.30
67822;BMP180;54434;50.096;20.082;2022-09-11T03:01:22;98346.80;;;13.30
67822;BMP180;54434;50.096;20.082;2022-09-11T03:03:59;98347.60;;;13.30
67822;BMP180;54434;50.096;20.082;2022-09-11T03:06:35;98346.40;;;13.32
67822;BMP180;54434;50.096;20.082;2022-09-11T03:09:13;98356.00;;;13.34
67822;BMP180;54434;50.096;20.082;2022-09-11T03:11:49;98353.40;;;13.34
67822;BMP180;54434;50.096;20.082;2022-09-11T03:14:26;98349.40;;;13.32
67822;BMP180;54434;50.096;20.082;2022-09-11T03:17:02;98347.60;;;13.34
67822;BMP180;54434;50.096;20.082;2022-09-11T03:19:40;98350.80;;;13.38
67822;BMP180;54434;50.096;20.082;2022-09-11T03:22:17;98349.40;;;13.40
67822;BMP180;54434;50.096;20.082;2022-09-11T03:24:53;98354.60;;;13.40
67822;BMP180;54434;50.096;20.082;2022-09-11T03:27:29;98362.60;;;13.40
67822;BMP180;54434;50.096;20.082;2022-09-11T03:30:08;98358.40;;;13.40
67822;BMP180;54434;50.096;20.082;2022-09-11T03:32:44;98359.00;;;13.42
67822;BMP180;54434;50.096;20.082;2022-09-11T03:35:20;98362.80;;;13.48
67822;BMP180;54434;50.096;20.082;2022-09-11T03:37:58;98361.00;;;13.50
67822;BMP180;54434;50.096;20.082;2022-09-11T03:40:34;98365.00;;;13.50
67822;BMP180;54434;50.096;20.082;2022-09-11T03:43:10;98370.40;;;13.46
67822;BMP180;54434;50.096;20.082;2022-09-11T03:45:49;98365.80;;;13.48
67822;BMP180;54434;50.096;20.082;2022-09-11T03:48:25;98367.60;;;13.50
67822;BMP180;54434;50.096;20.082;2022-09-11T03:51:02;98370.20;;;13.48
67822;BMP180;54434;50.096;20.082;2022-09-11T03:53:39;98367.20;;;13.40
67822;BMP180;54434;50.096;20.082;2022-09-11T03:56:16;98367.00;;;13.40
67822;BMP180;54434;50.096;20.082;2022-09-11T03:58:57;98371.20;;;13.40
67822;BMP180;54434;50.096;20.082;2022-09-11T04:01:34;98372.20;;;13.40
67822;BMP180;54434;50.096;20.082;2022-09-11T04:04:10;98374.60;;;13.40
67822;BMP180;54434;50.096;20.082;2022-09-11T04:06:49;98372.80;;;13.40
67822;BMP180;54434;50.096;20.082;2022-09-11T04:09:25;98371.40;;;13.36
67822;BMP180;54434;50.096;20.082;2022-09-11T04:12:02;98371.20;;;13.32
67822;BMP180;54434;50.096;20.082;2022-09-11T04:14:38;98367.40;;;13.30
67822;BMP180;54434;50.096;20.082;2022-09-11T04:17:14;98367.60;;;13.30
67822;BMP180;54434;50.096;20.082;2022-09-11T04:19:50;98366.00;;;13.30
67822;BMP180;54434;50.096;20.082;2022-09-11T04:22:26;98370.20;;;13.30
67822;BMP180;54434;50.096;20.082;2022-09-11T04:25:02;98376.00;;;13.30
67822;BMP180;54434;50.096;20.082;2022-09-11T04:27:38;98379.60;;;13.30
67822;BMP180;54434;50.096;20.082;2022-09-11T04:30:17;98378.00;;;13.30
67822;BMP180;54434;50.096;20.082;2022-09-11T04:32:55;98377.20;;;13.30
67822;BMP180;54434;50.096;20.082;2022-09-11T04:35:35;98373.40;;;13.30
67822;BMP180;54434;50.096;20.082;2022-09-11T04:38:11;98377.20;;;13.30
67822;BMP180;54434;50.096;20.082;2022-09-11T04:40:48;98374.60;;;13.32
67822;BMP180;54434;50.096;20.082;2022-09-11T04:43:25;98378.40;;;13.40
67822;BMP180;54434;50.096;20.082;2022-09-11T04:46:09;98376.60;;;13.40
67822;BMP180;54434;50.096;20.082;2022-09-11T04:48:52;98378.80;;;13.40
67822;BMP180;54434;50.096;20.082;2022-09-11T04:51:34;98380.00;;;13.40
67822;BMP180;54434;50.096;20.082;2022-09-11T04:54:15;98378.40;;;13.40
67822;BMP180;54434;50.096;20.082;2022-09-11T04:56:55;98375.20;;;13.40
67822;BMP180;54434;50.096;20.082;2022-09-11T04:59:32;98376.80;;;13.40
67822;BMP180;54434;50.096;20.082;2022-09-11T05:02:11;98374.80;;;13.40
67822;BMP180;54434;50.096;20.082;2022-09-11T05:04:51;98376.40;;;13.40
67822;BMP180;54434;50.096;20.082;2022-09-11T05:07:26;98376.00;;;13.40
67822;BMP180;54434;50.096;20.082;2022-09-11T05:10:04;98374.60;;;13.40
67822;BMP180;54434;50.096;20.082;2022-09-11T05:12:41;98375.60;;;13.40
67822;BMP180;54434;50.096;20.082;2022-09-11T05:15:17;98370.60;;;13.50
67822;BMP180;54434;50.096;20.082;2022-09-11T05:17:54;98368.00;;;13.50
67822;BMP180;54434;50.096;20.082;2022-09-11T05:20:31;98364.00;;;13.50
67822;BMP180;54434;50.096;20.082;2022-09-11T05:23:12;98366.60;;;13.50
67822;BMP180;54434;50.096;20.082;2022-09-11T05:25:49;98369.40;;;13.60
67822;BMP180;54434;50.096;20.082;2022-09-11T05:28:27;98372.80;;;13.60
67822;BMP180;54434;50.096;20.082;2022-09-11T05:31:13;98375.00;;;13.60
67822;BMP180;54434;50.096;20.082;2022-09-11T05:33:50;98379.40;;;13.70
67822;BMP180;54434;50.096;20.082;2022-09-11T05:36:28;98383.00;;;13.80
67822;BMP180;54434;50.096;20.082;2022-09-11T05:39:06;98384.60;;;13.80
67822;BMP180;54434;50.096;20.082;2022-09-11T05:41:43;98379.80;;;13.86
67822;BMP180;54434;50.096;20.082;2022-09-11T05:44:19;98384.40;;;13.90
67822;BMP180;54434;50.096;20.082;2022-09-11T05:46:55;98379.00;;;13.92
67822;BMP180;54434;50.096;20.082;2022-09-11T05:49:32;98376.40;;;14.00
67822;BMP180;54434;50.096;20.082;2022-09-11T05:52:08;98375.00;;;14.00
67822;BMP180;54434;50.096;20.082;2022-09-11T05:54:44;98376.00;;;14.00
67822;BMP180;54434;50.096;20.082;2022-09-11T05:57:21;98379.40;;;14.08
67822;BMP180;54434;50.096;20.082;2022-09-11T05:59:57;98378.80;;;14.10
67822;BMP180;54434;50.096;20.082;2022-09-11T06:02:35;98381.60;;;14.10
67822;BMP180;54434;50.096;20.082;2022-09-11T06:05:12;98376.80;;;14.18
67822;BMP180;54434;50.096;20.082;2022-09-11T06:07:49;98381.20;;;14.20
67822;BMP180;54434;50.096;20.082;2022-09-11T06:10:25;98379.80;;;14.20
67822;BMP180;54434;50.096;20.082;2022-09-11T06:13:01;98378.60;;;14.30
67822;BMP180;54434;50.096;20.082;2022-09-11T06:15:44;98383.00;;;14.30
67822;BMP180;54434;50.096;20.082;2022-09-11T06:18:21;98386.20;;;14.38
67822;BMP180;54434;50.096;20.082;2022-09-11T06:21:05;98387.60;;;14.40
67822;BMP180;54434;50.096;20.082;2022-09-11T06:23:48;98393.80;;;14.40
67822;BMP180;54434;50.096;20.082;2022-09-11T06:26:27;98392.40;;;14.40
67822;BMP180;54434;50.096;20.082;2022-09-11T06:29:04;98388.40;;;14.40
67822;BMP180;54434;50.096;20.082;2022-09-11T06:31:42;98388.60;;;14.50
67822;BMP180;54434;50.096;20.082;2022-09-11T06:34:20;98392.80;;;14.50
67822;BMP180;54434;50.096;20.082;2022-09-11T06:36:56;98389.20;;;14.60
67822;BMP180;54434;50.096;20.082;2022-09-11T06:39:33;98384.20;;;14.70
67822;BMP180;54434;50.096;20.082;2022-09-11T06:42:09;98381.00;;;14.80
67822;BMP180;54434;50.096;20.082;2022-09-11T06:44:45;98373.80;;;14.90
67822;BMP180;54434;50.096;20.082;2022-09-11T06:47:25;98380.40;;;15.00
67822;BMP180;54434;50.096;20.082;2022-09-11T06:50:01;98378.60;;;15.00
67822;BMP180;54434;50.096;20.082;2022-09-11T06:52:42;98379.40;;;15.00
67822;BMP180;54434;50.096;20.082;2022-09-11T06:55:26;98381.00;;;15.10
67822;BMP180;54434;50.096;20.082;2022-09-11T06:58:06;98380.40;;;15.10
67822;BMP180;54434;50.096;20.082;2022-09-11T07:00:42;98376.40;;;15.20
67822;BMP180;54434;50.096;20.082;2022-09-11T07:03:18;98377.20;;;15.20
67822;BMP180;54434;50.096;20.082;2022-09-11T07:05:56;98378.00;;;15.30
67822;BMP180;54434;50.096;20.082;2022-09-11T07:08:32;98381.60;;;15.36
67822;BMP180;54434;50.096;20.082;2022-09-11T07:11:09;98378.40;;;15.40
67822;BMP180;54434;50.096;20.082;2022-09-11T07:13:46;98375.80;;;15.56
67822;BMP180;54434;50.096;20.082;2022-09-11T07:16:23;98380.20;;;15.68
67822;BMP180;54434;50.096;20.082;2022-09-11T07:19:01;98379.20;;;15.70
67822;BMP180;54434;50.096;20.082;2022-09-11T07:21:38;98378.20;;;15.70
67822;BMP180;54434;50.096;20.082;2022-09-11T07:24:15;98376.40;;;15.70
67822;BMP180;54434;50.096;20.082;2022-09-11T07:26:51;98377.80;;;15.80
67822;BMP180;54434;50.096;20.082;2022-09-11T07:29:34;98381.20;;;15.80
67822;BMP180;54434;50.096;20.082;2022-09-11T07:32:10;98380.80;;;15.70
67822;BMP180;54434;50.096;20.082;2022-09-11T07:34:46;98381.80;;;15.70
67822;BMP180;54434;50.096;20.082;2022-09-11T07:37:24;98381.40;;;15.70
67822;BMP180;54434;50.096;20.082;2022-09-11T07:40:00;98381.00;;;15.60
67822;BMP180;54434;50.096;20.082;2022-09-11T07:42:38;98381.60;;;15.60
67822;BMP180;54434;50.096;20.082;2022-09-11T07:45:15;98381.40;;;15.56
67822;BMP180;54434;50.096;20.082;2022-09-11T07:47:57;98382.40;;;15.50
67822;BMP180;54434;50.096;20.082;2022-09-11T07:50:36;98386.20;;;15.50
67822;BMP180;54434;50.096;20.082;2022-09-11T07:53:12;98383.20;;;15.50
67822;BMP180;54434;50.096;20.082;2022-09-11T07:55:48;98391.60;;;15.50
67822;BMP180;54434;50.096;20.082;2022-09-11T07:58:25;98389.40;;;15.40
67822;BMP180;54434;50.096;20.082;2022-09-11T08:01:02;98388.20;;;15.40
67822;BMP180;54434;50.096;20.082;2022-09-11T08:03:40;98386.20;;;15.40
67822;BMP180;54434;50.096;20.082;2022-09-11T08:06:19;98382.80;;;15.40
67822;BMP180;54434;50.096;20.082;2022-09-11T08:09:01;98385.80;;;15.48
67822;BMP180;54434;50.096;20.082;2022-09-11T08:11:43;98391.20;;;15.50
67822;BMP180;54434;50.096;20.082;2022-09-11T08:14:21;98393.20;;;15.50
67822;BMP180;54434;50.096;20.082;2022-09-11T08:16:59;98397.00;;;15.50
67822;BMP180;54434;50.096;20.082;2022-09-11T08:19:36;98398.20;;;15.60
67822;BMP180;54434;50.096;20.082;2022-09-11T08:22:12;98397.80;;;15.70
67822;BMP180;54434;50.096;20.082;2022-09-11T08:24:51;98396.60;;;15.70
67822;BMP180;54434;50.096;20.082;2022-09-11T08:27:27;98401.20;;;15.80
67822;BMP180;54434;50.096;20.082;2022-09-11T08:30:04;98401.40;;;15.80
67822;BMP180;54434;50.096;20.082;2022-09-11T08:32:40;98398.60;;;15.80
67822;BMP180;54434;50.096;20.082;2022-09-11T08:35:17;98400.80;;;15.80
67822;BMP180;54434;50.096;20.082;2022-09-11T08:37:54;98399.40;;;15.82
67822;BMP180;54434;50.096;20.082;2022-09-11T08:40:37;98401.20;;;15.90
67822;BMP180;54434;50.096;20.082;2022-09-11T08:43:22;98395.80;;;15.90
67822;BMP180;54434;50.096;20.082;2022-09-11T08:46:06;98394.80;;;16.00
67822;BMP180;54434;50.096;20.082;2022-09-11T08:48:55;98397.00;;;16.00
67822;BMP180;54434;50.096;20.082;2022-09-11T08:51:33;98395.00;;;16.00
67822;BMP180;54434;50.096;20.082;2022-09-11T08:54:23;98403.60;;;15.90
67822;BMP180;54434;50.096;20.082;2022-09-11T08:57:17;98405.20;;;15.88
67822;BMP180;54434;50.096;20.082;2022-09-11T09:00:15;98405.60;;;15.86
67822;BMP180;54434;50.096;20.082;2022-09-11T09:03:53;98410.60;;;15.90
67822;BMP180;54434;50.096;20.082;2022-09-11T09:06:56;98410.80;;;15.80
67822;BMP180;54434;50.096;20.082;2022-09-11T09:09:46;98411.40;;;15.86
67822;BMP180;54434;50.096;20.082;2022-09-11T09:12:40;98411.20;;;15.90
67822;BMP180;54434;50.096;20.082;2022-09-11T09:15:32;98410.40;;;16.00
67822;BMP180;54434;50.096;20.082;2022-09-11T09:18:19;98410.40;;;16.18
67822;BMP180;54434;50.096;20.082;2022-09-11T09:21:09;98408.40;;;16.30
67822;BMP180;54434;50.096;20.082;2022-09-11T09:23:52;98413.00;;;16.42
67822;BMP180;54434;50.096;20.082;2022-09-11T09:26:35;98412.20;;;16.50
67822;BMP180;54434;50.096;20.082;2022-09-11T09:29:22;98410.40;;;16.60
67822;BMP180;54434;50.096;20.082;2022-09-11T09:32:09;98410.60;;;16.70
67822;BMP180;54434;50.096;20.082;2022-09-11T09:34:52;98410.80;;;16.80
67822;BMP180;54434;50.096;20.082;2022-09-11T09:37:30;98412.00;;;16.90
67822;BMP180;54434;50.096;20.082;2022-09-11T09:40:13;98419.00;;;17.02
67822;BMP180;54434;50.096;20.082;2022-09-11T09:43:29;98417.00;;;17.12
67822;BMP180;54434;50.096;20.082;2022-09-11T09:46:21;98418.20;;;17.30
67822;BMP180;54434;50.096;20.082;2022-09-11T09:49:02;98418.60;;;17.48
67822;BMP180;54434;50.096;20.082;2022-09-11T09:51:38;98416.40;;;17.54
67822;BMP180;54434;50.096;20.082;2022-09-11T09:54:19;98424.20;;;17.60
67822;BMP180;54434;50.096;20.082;2022-09-11T09:57:05;98419.20;;;17.60
67822;BMP180;54434;50.096;20.082;2022-09-11T09:59:49;98418.60;;;17.70
67822;BMP180;54434;50.096;20.082;2022-09-11T10:02:43;98415.20;;;17.80
67822;BMP180;54434;50.096;20.082;2022-09-11T10:05:28;98418.20;;;17.98
67822;BMP180;54434;50.096;20.082;2022-09-11T10:08:20;98413.00;;;18.04
67822;BMP180;54434;50.096;20.082;2022-09-11T10:11:01;98412.40;;;18.20
67822;BMP180;54434;50.096;20.082;2022-09-11T10:13:41;98412.00;;;18.40
67822;BMP180;54434;50.096;20.082;2022-09-11T10:16:26;98415.60;;;18.50
67822;BMP180;54434;50.096;20.082;2022-09-11T10:19:02;98416.60;;;18.50
67822;BMP180;54434;50.096;20.082;2022-09-11T10:21:39;98419.80;;;18.40
67822;BMP180;54434;50.096;20.082;2022-09-11T10:24:30;98420.80;;;18.20
67822;BMP180;54434;50.096;20.082;2022-09-11T10:27:12;98422.20;;;18.00
67822;BMP180;54434;50.096;20.082;2022-09-11T10:29:55;98419.60;;;17.90
67822;BMP180;54434;50.096;20.082;2022-09-11T10:32:42;98427.60;;;17.72
67822;BMP180;54434;50.096;20.082;2022-09-11T10:35:22;98427.00;;;17.60
67822;BMP180;54434;50.096;20.082;2022-09-11T10:38:17;98428.00;;;17.60
67822;BMP180;54434;50.096;20.082;2022-09-11T10:41:04;98425.80;;;17.70
67822;BMP180;54434;50.096;20.082;2022-09-11T10:43:52;98427.00;;;17.70
67822;BMP180;54434;50.096;20.082;2022-09-11T10:46:37;98425.20;;;17.70
67822;BMP180;54434;50.096;20.082;2022-09-11T10:49:22;98419.40;;;17.92
67822;BMP180;54434;50.096;20.082;2022-09-11T10:52:19;98418.80;;;18.18
67822;BMP180;54434;50.096;20.082;2022-09-11T10:55:08;98421.00;;;18.34
67822;BMP180;54434;50.096;20.082;2022-09-11T10:57:52;98420.00;;;18.50
67822;BMP180;54434;50.096;20.082;2022-09-11T11:00:31;98418.20;;;18.60
67822;BMP180;54434;50.096;20.082;2022-09-11T11:03:15;98419.80;;;18.70
67822;BMP180;54434;50.096;20.082;2022-09-11T11:06:10;98422.00;;;18.60
67822;BMP180;54434;50.096;20.082;2022-09-11T11:09:21;98425.60;;;18.50
67822;BMP180;54434;50.096;20.082;2022-09-11T11:12:26;98422.60;;;18.40
67822;BMP180;54434;50.096;20.082;2022-09-11T11:15:37;98420.20;;;18.30
67822;BMP180;54434;50.096;20.082;2022-09-11T11:18:43;98425.40;;;18.20
67822;BMP180;54434;50.096;20.082;2022-09-11T11:21:40;98429.40;;;18.10
67822;BMP180;54434;50.096;20.082;2022-09-11T11:24:47;98437.60;;;18.00
67822;BMP180;54434;50.096;20.082;2022-09-11T11:27:59;98434.20;;;17.90
67822;BMP180;54434;50.096;20.082;2022-09-11T11:30:49;98437.60;;;17.80
67822;BMP180;54434;50.096;20.082;2022-09-11T11:33:58;98436.80;;;17.80
67822;BMP180;54434;50.096;20.082;2022-09-11T11:36:43;98435.20;;;17.70
67822;BMP180;54434;50.096;20.082;2022-09-11T11:39:27;98435.20;;;17.60
67822;BMP180;54434;50.096;20.082;2022-09-11T11:42:16;98435.20;;;17.54
67822;BMP180;54434;50.096;20.082;2022-09-11T11:45:02;98434.60;;;17.50
67822;BMP180;54434;50.096;20.082;2022-09-11T11:47:42;98435.80;;;17.50
67822;BMP180;54434;50.096;20.082;2022-09-11T11:50:31;98432.20;;;17.50
67822;BMP180;54434;50.096;20.082;2022-09-11T11:53:19;98434.00;;;17.50
67822;BMP180;54434;50.096;20.082;2022-09-11T11:56:09;98429.20;;;17.50
67822;BMP180;54434;50.096;20.082;2022-09-11T11:58:55;98425.40;;;17.50
67822;BMP180;54434;50.096;20.082;2022-09-11T12:01:42;98430.80;;;17.50
67822;BMP180;54434;50.096;20.082;2022-09-11T12:04:38;98433.20;;;17.50
67822;BMP180;54434;50.096;20.082;2022-09-11T12:07:26;98437.20;;;17.60
67822;BMP180;54434;50.096;20.082;2022-09-11T12:10:07;98440.00;;;17.70
67822;BMP180;54434;50.096;20.082;2022-09-11T12:12:57;98434.00;;;17.80
67822;BMP180;54434;50.096;20.082;2022-09-11T12:15:34;98430.00;;;17.90
67822;BMP180;54434;50.096;20.082;2022-09-11T12:18:28;98438.60;;;18.00
67822;BMP180;54434;50.096;20.082;2022-09-11T12:21:37;98436.80;;;18.10
67822;BMP180;54434;50.096;20.082;2022-09-11T12:24:25;98435.20;;;18.20
67822;BMP180;54434;50.096;20.082;2022-09-11T12:28:18;98427.00;;;18.30
67822;BMP180;54434;50.096;20.082;2022-09-11T12:31:03;98436.00;;;18.50
67822;BMP180;54434;50.096;20.082;2022-09-11T12:33:57;98432.00;;;18.60
67822;BMP180;54434;50.096;20.082;2022-09-11T12:36:55;98431.60;;;18.70
67822;BMP180;54434;50.096;20.082;2022-09-11T12:39:43;98435.00;;;18.80
67822;BMP180;54434;50.096;20.082;2022-09-11T12:42:58;98432.80;;;18.90
67822;BMP180;54434;50.096;20.082;2022-09-11T12:45:50;98426.60;;;19.00
67822;BMP180;54434;50.096;20.082;2022-09-11T12:48:36;98426.00;;;19.10
67822;BMP180;54434;50.096;20.082;2022-09-11T12:51:26;98424.40;;;19.20
67822;BMP180;54434;50.096;20.082;2022-09-11T12:54:13;98418.20;;;19.20
67822;BMP180;54434;50.096;20.082;2022-09-11T12:56:58;98411.20;;;19.20
67822;BMP180;54434;50.096;20.082;2022-09-11T12:59:38;98407.00;;;19.20
67822;BMP180;54434;50.096;20.082;2022-09-11T13:02:30;98410.80;;;19.20
67822;BMP180;54434;50.096;20.082;2022-09-11T13:05:22;98414.80;;;19.18
67822;BMP180;54434;50.096;20.082;2022-09-11T13:08:03;98409.20;;;19.10
67822;BMP180;54434;50.096;20.082;2022-09-11T13:10:41;98411.80;;;19.00
67822;BMP180;54434;50.096;20.082;2022-09-11T13:13:44;98410.00;;;18.90
67822;BMP180;54434;50.096;20.082;2022-09-11T13:16:28;98411.40;;;18.80
67822;BMP180;54434;50.096;20.082;2022-09-11T13:19:14;98409.40;;;18.80
67822;BMP180;54434;50.096;20.082;2022-09-11T13:21:53;98415.00;;;18.70
67822;BMP180;54434;50.096;20.082;2022-09-11T13:24:33;98411.80;;;18.70
67822;BMP180;54434;50.096;20.082;2022-09-11T13:27:19;98411.20;;;18.60
67822;BMP180;54434;50.096;20.082;2022-09-11T13:30:00;98411.40;;;18.60
67822;BMP180;54434;50.096;20.082;2022-09-11T13:32:37;98417.80;;;18.50
67822;BMP180;54434;50.096;20.082;2022-09-11T13:35:19;98414.80;;;18.40
67822;BMP180;54434;50.096;20.082;2022-09-11T13:38:03;98416.80;;;18.20
67822;BMP180;54434;50.096;20.082;2022-09-11T13:40:46;98414.80;;;18.10
67822;BMP180;54434;50.096;20.082;2022-09-11T13:43:27;98417.80;;;17.92
67822;BMP180;54434;50.096;20.082;2022-09-11T13:46:22;98419.00;;;17.80
67822;BMP180;54434;50.096;20.082;2022-09-11T13:49:31;98419.20;;;17.70
67822;BMP180;54434;50.096;20.082;2022-09-11T13:52:11;98418.60;;;17.60
67822;BMP180;54434;50.096;20.082;2022-09-11T13:54:52;98418.40;;;17.50
67822;BMP180;54434;50.096;20.082;2022-09-11T13:57:30;98416.40;;;17.42
67822;BMP180;54434;50.096;20.082;2022-09-11T14:00:40;98417.40;;;17.40
67822;BMP180;54434;50.096;20.082;2022-09-11T14:03:24;98413.00;;;17.32
67822;BMP180;54434;50.096;20.082;2022-09-11T14:06:09;98411.20;;;17.34
67822;BMP180;54434;50.096;20.082;2022-09-11T14:08:54;98405.00;;;17.40
67822;BMP180;54434;50.096;20.082;2022-09-11T14:11:33;98398.60;;;17.40
67822;BMP180;54434;50.096;20.082;2022-09-11T14:14:17;98403.80;;;17.40
67822;BMP180;54434;50.096;20.082;2022-09-11T14:16:57;98404.40;;;17.50
67822;BMP180;54434;50.096;20.082;2022-09-11T14:19:37;98404.00;;;17.52
67822;BMP180;54434;50.096;20.082;2022-09-11T14:22:26;98404.00;;;17.70
67822;BMP180;54434;50.096;20.082;2022-09-11T14:25:22;98408.60;;;17.72
67822;BMP180;54434;50.096;20.082;2022-09-11T14:27:58;98410.40;;;17.80
67822;BMP180;54434;50.096;20.082;2022-09-11T14:30:37;98410.80;;;17.80
67822;BMP180;54434;50.096;20.082;2022-09-11T14:33:26;98407.60;;;17.70
67822;BMP180;54434;50.096;20.082;2022-09-11T14:36:13;98398.80;;;17.64
67822;BMP180;54434;50.096;20.082;2022-09-11T14:38:52;98393.80;;;17.60
67822;BMP180;54434;50.096;20.082;2022-09-11T14:41:28;98391.00;;;17.60
67822;BMP180;54434;50.096;20.082;2022-09-11T14:44:04;98392.80;;;17.60
67822;BMP180;54434;50.096;20.082;2022-09-11T14:46:41;98392.00;;;17.60
67822;BMP180;54434;50.096;20.082;2022-09-11T14:49:18;98391.60;;;17.60
67822;BMP180;54434;50.096;20.082;2022-09-11T14:51:58;98387.60;;;17.60
67822;BMP180;54434;50.096;20.082;2022-09-11T14:54:34;98387.60;;;17.60
67822;BMP180;54434;50.096;20.082;2022-09-11T14:57:15;98388.00;;;17.60
67822;BMP180;54434;50.096;20.082;2022-09-11T14:59:54;98388.80;;;17.50
67822;BMP180;54434;50.096;20.082;2022-09-11T15:02:31;98392.00;;;17.50
67822;BMP180;54434;50.096;20.082;2022-09-11T15:05:17;98397.20;;;17.40
67822;BMP180;54434;50.096;20.082;2022-09-11T15:07:55;98400.20;;;17.30
67822;BMP180;54434;50.096;20.082;2022-09-11T15:10:34;98404.20;;;17.20
67822;BMP180;54434;50.096;20.082;2022-09-11T15:13:10;98408.00;;;17.10
67822;BMP180;54434;50.096;20.082;2022-09-11T15:15:48;98414.40;;;17.00
67822;BMP180;54434;50.096;20.082;2022-09-11T15:18:24;98417.60;;;16.90
67822;BMP180;54434;50.096;20.082;2022-09-11T15:21:01;98417.60;;;16.86
67822;BMP180;54434;50.096;20.082;2022-09-11T15:23:37;98415.20;;;16.76
67822;BMP180;54434;50.096;20.082;2022-09-11T15:26:14;98413.80;;;16.70
67822;BMP180;54434;50.096;20.082;2022-09-11T15:28:50;98415.80;;;16.60